sensor_id;sensor_type;location;lat;lon;timestamp;P1;durP1;ratioP1;P2;durP2;ratioP2
3267;SDS011;1646;52.450;13.326;2024-02-28T00:03:20;33.53;;;13.77;;
3267;SDS011;1646;52.450;13.326;2024-02-28T00:08:21;24.33;;;12.40;;
3267;SDS011;1646;52.450;13.326;2024-02-28T00:13:20;30.07;;;11.80;;
3267;SDS011;1646;52.450;13.326;2024-02-28T00:18:19;35.40;;;12.70;;
3267;SDS011;1646;52.450;13.326;2024-02-28T00:23:18;40.90;;;15.00;;
3267;SDS011;1646;52.450;13.326;2024-02-28T00:28:17;43.87;;;15.20;;
3267;SDS011;1646;52.450;13.326;2024-02-28T00:33:15;34.90;;;14.87;;
3267;SDS011;1646;52.450;13.326;2024-02-28T00:38:14;37.13;;;15.23;;
3267;SDS011;1646;52.450;13.326;2024-02-28T00:43:12;38.27;;;15.30;;
3267;SDS011;1646;52.450;13.326;2024-02-28T00:48:12;37.13;;;15.10;;
3267;SDS011;1646;52.450;13.326;2024-02-28T00:53:10;39.57;;;15.67;;
3267;SDS011;1646;52.450;13.326;2024-02-28T00:58:08;31.17;;;14.13;;
3267;SDS011;1646;52.450;13.326;2024-02-28T01:03:07;32.20;;;14.57;;
3267;SDS011;1646;52.450;13.326;2024-02-28T01:08:08;33.43;;;14.33;;
3267;SDS011;1646;52.450;13.326;2024-02-28T01:13:07;33.37;;;14.73;;
3267;SDS011;1646;52.450;13.326;2024-02-28T01:18:05;36.53;;;15.33;;
3267;SDS011;1646;52.450;13.326;2024-02-28T01:23:03;35.17;;;15.53;;
3267;SDS011;1646;52.450;13.326;2024-02-28T01:28:03;37.53;;;15.70;;
3267;SDS011;1646;52.450;13.326;2024-02-28T01:33:02;44.60;;;17.20;;
3267;SDS011;1646;52.450;13.326;2024-02-28T01:38:01;37.57;;;15.80;;
3267;SDS011;1646;52.450;13.326;2024-02-28T01:43:03;37.77;;;15.90;;
3267;SDS011;1646;52.450;13.326;2024-02-28T01:48:04;57.10;;;20.03;;
3267;SDS011;1646;52.450;13.326;2024-02-28T01:53:04;61.13;;;22.13;;
3267;SDS011;1646;52.450;13.326;2024-02-28T01:58:06;54.23;;;18.90;;
3267;SDS011;1646;52.450;13.326;2024-02-28T02:03:05;48.47;;;18.10;;
3267;SDS011;1646;52.450;13.326;2024-02-28T02:08:03;44.63;;;17.80;;
3267;SDS011;1646;52.450;13.326;2024-02-28T02:13:06;39.47;;;16.87;;
3267;SDS011;1646;52.450;13.326;2024-02-28T02:18:05;41.50;;;16.47;;
3267;SDS011;1646;52.450;13.326;2024-02-28T02:23:05;35.90;;;12.70;;
3267;SDS011;1646;52.450;13.326;2024-02-28T02:28:03;34.87;;;15.30;;
3267;SDS011;1646;52.450;13.326;2024-02-28T02:33:02;40.23;;;14.57;;
3267;SDS011;1646;52.450;13.326;2024-02-28T02:38:01;27.57;;;12.47;;
3267;SDS011;1646;52.450;13.326;2024-02-28T02:43:00;27.40;;;11.77;;
3267;SDS011;1646;52.450;13.326;2024-02-28T02:47:58;27.00;;;12.17;;
3267;SDS011;1646;52.450;13.326;2024-02-28T02:52:57;25.30;;;10.10;;
3267;SDS011;1646;52.450;13.326;2024-02-28T02:57:55;32.40;;;10.93;;
3267;SDS011;1646;52.450;13.326;2024-02-28T03:02:55;26.37;;;11.30;;
3267;SDS011;1646;52.450;13.326;2024-02-28T03:07:53;29.43;;;11.10;;
3267;SDS011;1646;52.450;13.326;2024-02-28T03:12:51;24.90;;;10.70;;
3267;SDS011;1646;52.450;13.326;2024-02-28T03:17:50;16.83;;;8.40;;
3267;SDS011;1646;52.450;13.326;2024-02-28T03:22:49;17.97;;;7.40;;
3267;SDS011;1646;52.450;13.326;2024-02-28T03:27:48;13.83;;;6.90;;
3267;SDS011;1646;52.450;13.326;2024-02-28T03:32:46;13.27;;;6.50;;
3267;SDS011;1646;52.450;13.326;2024-02-28T03:37:44;10.37;;;5.60;;
3267;SDS011;1646;52.450;13.326;2024-02-28T03:42:44;16.33;;;7.67;;
3267;SDS011;1646;52.450;13.326;2024-02-28T03:47:42;16.50;;;7.30;;
3267;SDS011;1646;52.450;13.326;2024-02-28T03:52:41;16.17;;;7.00;;
3267;SDS011;1646;52.450;13.326;2024-02-28T03:57:39;16.83;;;8.13;;
3267;SDS011;1646;52.450;13.326;2024-02-28T04:02:39;22.73;;;8.77;;
3267;SDS011;1646;52.450;13.326;2024-02-28T04:07:37;18.20;;;8.17;;
3267;SDS011;1646;52.450;13.326;2024-02-28T04:12:35;20.33;;;8.03;;
3267;SDS011;1646;52.450;13.326;2024-02-28T04:17:33;16.60;;;8.37;;
3267;SDS011;1646;52.450;13.326;2024-02-28T04:22:33;15.93;;;7.90;;
3267;SDS011;1646;52.450;13.326;2024-02-28T04:27:32;21.20;;;9.57;;
3267;SDS011;1646;52.450;13.326;2024-02-28T04:32:30;18.10;;;8.77;;
3267;SDS011;1646;52.450;13.326;2024-02-28T04:37:29;16.67;;;8.17;;
3267;SDS011;1646;52.450;13.326;2024-02-28T04:42:28;17.20;;;8.07;;
3267;SDS011;1646;52.450;13.326;2024-02-28T04:47:27;19.70;;;10.43;;
3267;SDS011;1646;52.450;13.326;2024-02-28T04:52:35;19.33;;;9.43;;
3267;SDS011;1646;52.450;13.326;2024-02-28T04:57:35;15.97;;;8.10;;
3267;SDS011;1646;52.450;13.326;2024-02-28T05:02:34;16.77;;;7.93;;
3267;SDS011;1646;52.450;13.326;2024-02-28T05:07:32;17.47;;;8.07;;
3267;SDS011;1646;52.450;13.326;2024-02-28T05:12:30;16.63;;;8.17;;
3267;SDS011;1646;52.450;13.326;2024-02-28T05:17:30;15.93;;;8.40;;
3267;SDS011;1646;52.450;13.326;2024-02-28T05:22:28;15.93;;;9.20;;
3267;SDS011;1646;52.450;13.326;2024-02-28T05:27:26;19.73;;;9.60;;
3267;SDS011;1646;52.450;13.326;2024-02-28T05:32:25;21.63;;;9.90;;
3267;SDS011;1646;52.450;13.326;2024-02-28T05:37:24;17.97;;;9.57;;
3267;SDS011;1646;52.450;13.326;2024-02-28T05:42:23;16.30;;;8.53;;
3267;SDS011;1646;52.450;13.326;2024-02-28T05:47:21;17.17;;;8.50;;
3267;SDS011;1646;52.450;13.326;2024-02-28T05:52:21;16.90;;;8.43;;
3267;SDS011;1646;52.450;13.326;2024-02-28T05:57:21;16.00;;;7.47;;
3267;SDS011;1646;52.450;13.326;2024-02-28T06:02:20;21.20;;;8.63;;
3267;SDS011;1646;52.450;13.326;2024-02-28T06:07:18;15.93;;;9.50;;
3267;SDS011;1646;52.450;13.326;2024-02-28T06:12:16;17.40;;;8.47;;
3267;SDS011;1646;52.450;13.326;2024-02-28T06:17:16;14.60;;;7.70;;
3267;SDS011;1646;52.450;13.326;2024-02-28T06:22:14;15.40;;;7.83;;
3267;SDS011;1646;52.450;13.326;2024-02-28T06:27:14;15.30;;;7.70;;
3267;SDS011;1646;52.450;13.326;2024-02-28T06:32:13;14.00;;;7.43;;
3267;SDS011;1646;52.450;13.326;2024-02-28T06:37:12;11.20;;;5.93;;
3267;SDS011;1646;52.450;13.326;2024-02-28T06:42:11;13.63;;;6.97;;
3267;SDS011;1646;52.450;13.326;2024-02-28T06:47:09;11.90;;;6.07;;
3267;SDS011;1646;52.450;13.326;2024-02-28T06:52:07;14.20;;;6.70;;
3267;SDS011;1646;52.450;13.326;2024-02-28T06:57:07;14.77;;;7.13;;
3267;SDS011;1646;52.450;13.326;2024-02-28T07:02:05;12.60;;;6.60;;
3267;SDS011;1646;52.450;13.326;2024-02-28T07:07:04;10.83;;;6.17;;
3267;SDS011;1646;52.450;13.326;2024-02-28T07:12:02;14.73;;;6.67;;
3267;SDS011;1646;52.450;13.326;2024-02-28T07:17:02;12.80;;;6.40;;
3267;SDS011;1646;52.450;13.326;2024-02-28T07:22:00;14.87;;;6.97;;
3267;SDS011;1646;52.450;13.326;2024-02-28T07:26:59;12.20;;;6.57;;
3267;SDS011;1646;52.450;13.326;2024-02-28T07:31:58;11.03;;;5.80;;
3267;SDS011;1646;52.450;13.326;2024-02-28T07:37:00;10.63;;;5.47;;
3267;SDS011;1646;52.450;13.326;2024-02-28T07:41:59;10.63;;;5.50;;
3267;SDS011;1646;52.450;13.326;2024-02-28T07:46:57;13.87;;;6.57;;
3267;SDS011;1646;52.450;13.326;2024-02-28T07:51:55;12.80;;;6.30;;
3267;SDS011;1646;52.450;13.326;2024-02-28T07:56:55;10.60;;;5.60;;
3267;SDS011;1646;52.450;13.326;2024-02-28T08:01:53;12.80;;;7.10;;
3267;SDS011;1646;52.450;13.326;2024-02-28T08:06:52;12.37;;;6.60;;
3267;SDS011;1646;52.450;13.326;2024-02-28T08:11:50;11.30;;;6.07;;
3267;SDS011;1646;52.450;13.326;2024-02-28T08:16:50;14.97;;;7.37;;
3267;SDS011;1646;52.450;13.326;2024-02-28T08:21:48;15.53;;;8.53;;
3267;SDS011;1646;52.450;13.326;2024-02-28T08:26:47;13.13;;;6.53;;
3267;SDS011;1646;52.450;13.326;2024-02-28T08:31:45;16.47;;;8.00;;
3267;SDS011;1646;52.450;13.326;2024-02-28T08:36:45;11.77;;;5.50;;
3267;SDS011;1646;52.450;13.326;2024-02-28T08:41:43;13.63;;;6.50;;
3267;SDS011;1646;52.450;13.326;2024-02-28T08:46:41;13.40;;;7.40;;
3267;SDS011;1646;52.450;13.326;2024-02-28T08:51:39;15.40;;;7.90;;
3267;SDS011;1646;52.450;13.326;2024-02-28T08:56:39;19.63;;;8.87;;
3267;SDS011;1646;52.450;13.326;2024-02-28T09:01:51;19.27;;;9.00;;
3267;SDS011;1646;52.450;13.326;2024-02-28T09:06:50;18.47;;;8.70;;
3267;SDS011;1646;52.450;13.326;2024-02-28T09:11:51;18.23;;;8.57;;
3267;SDS011;1646;52.450;13.326;2024-02-28T09:16:49;23.03;;;9.73;;
3267;SDS011;1646;52.450;13.326;2024-02-28T09:21:47;19.03;;;9.20;;
3267;SDS011;1646;52.450;13.326;2024-02-28T09:26:46;21.23;;;10.33;;
3267;SDS011;1646;52.450;13.326;2024-02-28T09:31:45;24.73;;;11.57;;
3267;SDS011;1646;52.450;13.326;2024-02-28T09:36:44;25.70;;;11.57;;
3267;SDS011;1646;52.450;13.326;2024-02-28T09:41:47;24.20;;;10.93;;
3267;SDS011;1646;52.450;13.326;2024-02-28T09:46:48;31.07;;;13.10;;
3267;SDS011;1646;52.450;13.326;2024-02-28T09:51:48;28.00;;;12.20;;
3267;SDS011;1646;52.450;13.326;2024-02-28T09:56:48;24.87;;;11.00;;
3267;SDS011;1646;52.450;13.326;2024-02-28T10:01:55;25.60;;;12.00;;
3267;SDS011;1646;52.450;13.326;2024-02-28T10:06:56;24.23;;;11.67;;
3267;SDS011;1646;52.450;13.326;2024-02-28T10:11:54;26.40;;;12.57;;
3267;SDS011;1646;52.450;13.326;2024-02-28T10:16:54;30.20;;;13.20;;
3267;SDS011;1646;52.450;13.326;2024-02-28T10:21:53;26.00;;;11.80;;
3267;SDS011;1646;52.450;13.326;2024-02-28T10:26:51;28.33;;;13.40;;
3267;SDS011;1646;52.450;13.326;2024-02-28T10:31:54;32.10;;;13.50;;
3267;SDS011;1646;52.450;13.326;2024-02-28T10:36:53;26.03;;;12.23;;
3267;SDS011;1646;52.450;13.326;2024-02-28T10:41:51;27.17;;;12.10;;
3267;SDS011;1646;52.450;13.326;2024-02-28T10:46:51;24.20;;;11.53;;
3267;SDS011;1646;52.450;13.326;2024-02-28T10:51:51;27.70;;;12.03;;
3267;SDS011;1646;52.450;13.326;2024-02-28T10:56:53;29.33;;;13.60;;
3267;SDS011;1646;52.450;13.326;2024-02-28T11:01:52;23.67;;;11.67;;
3267;SDS011;1646;52.450;13.326;2024-02-28T11:06:53;21.47;;;11.00;;
3267;SDS011;1646;52.450;13.326;2024-02-28T11:11:53;22.87;;;11.30;;
3267;SDS011;1646;52.450;13.326;2024-02-28T11:17:01;24.77;;;11.53;;
3267;SDS011;1646;52.450;13.326;2024-02-28T11:22:04;19.43;;;9.40;;
3267;SDS011;1646;52.450;13.326;2024-02-28T11:27:03;21.67;;;10.93;;
3267;SDS011;1646;52.450;13.326;2024-02-28T11:32:03;22.57;;;9.97;;
3267;SDS011;1646;52.450;13.326;2024-02-28T11:37:03;22.50;;;10.57;;
3267;SDS011;1646;52.450;13.326;2024-02-28T11:42:09;20.50;;;11.00;;
3267;SDS011;1646;52.450;13.326;2024-02-28T11:47:10;20.30;;;10.07;;
3267;SDS011;1646;52.450;13.326;2024-02-28T11:52:09;22.20;;;10.77;;
3267;SDS011;1646;52.450;13.326;2024-02-28T11:57:10;24.60;;;11.03;;
3267;SDS011;1646;52.450;13.326;2024-02-28T12:02:14;22.53;;;10.03;;
3267;SDS011;1646;52.450;13.326;2024-02-28T12:07:14;21.50;;;10.30;;
3267;SDS011;1646;52.450;13.326;2024-02-28T12:12:12;24.13;;;11.03;;
3267;SDS011;1646;52.450;13.326;2024-02-28T12:17:11;23.00;;;11.40;;
3267;SDS011;1646;52.450;13.326;2024-02-28T12:22:11;22.93;;;11.10;;
3267;SDS011;1646;52.450;13.326;2024-02-28T12:27:10;20.80;;;10.20;;
3267;SDS011;1646;52.450;13.326;2024-02-28T12:32:09;20.87;;;10.03;;
3267;SDS011;1646;52.450;13.326;2024-02-28T12:37:08;20.53;;;9.97;;
3267;SDS011;1646;52.450;13.326;2024-02-28T12:42:07;25.87;;;10.40;;
3267;SDS011;1646;52.450;13.326;2024-02-28T12:47:07;27.00;;;10.70;;
3267;SDS011;1646;52.450;13.326;2024-02-28T12:52:05;17.47;;;10.10;;
3267;SDS011;1646;52.450;13.326;2024-02-28T12:57:04;23.97;;;10.57;;
3267;SDS011;1646;52.450;13.326;2024-02-28T13:02:02;21.63;;;10.10;;
3267;SDS011;1646;52.450;13.326;2024-02-28T13:07:03;21.20;;;10.03;;
3267;SDS011;1646;52.450;13.326;2024-02-28T13:12:01;20.43;;;9.60;;
3267;SDS011;1646;52.450;13.326;2024-02-28T13:17:00;19.07;;;10.20;;
3267;SDS011;1646;52.450;13.326;2024-02-28T13:22:00;21.03;;;9.27;;
3267;SDS011;1646;52.450;13.326;2024-02-28T13:27:00;18.60;;;9.07;;
3267;SDS011;1646;52.450;13.326;2024-02-28T13:31:58;17.23;;;9.20;;
3267;SDS011;1646;52.450;13.326;2024-02-28T13:36:56;18.47;;;8.90;;
3267;SDS011;1646;52.450;13.326;2024-02-28T13:41:56;17.70;;;9.07;;
3267;SDS011;1646;52.450;13.326;2024-02-28T13:46:57;15.63;;;8.57;;
3267;SDS011;1646;52.450;13.326;2024-02-28T13:51:55;17.50;;;9.03;;
3267;SDS011;1646;52.450;13.326;2024-02-28T13:56:53;18.60;;;8.00;;
3267;SDS011;1646;52.450;13.326;2024-02-28T14:01:52;17.67;;;8.73;;
3267;SDS011;1646;52.450;13.326;2024-02-28T14:06:52;16.43;;;9.03;;
3267;SDS011;1646;52.450;13.326;2024-02-28T14:11:51;17.73;;;8.60;;
3267;SDS011;1646;52.450;13.326;2024-02-28T14:16:49;17.77;;;8.30;;
3267;SDS011;1646;52.450;13.326;2024-02-28T14:21:47;15.03;;;8.17;;
3267;SDS011;1646;52.450;13.326;2024-02-28T14:26:47;17.70;;;9.00;;
3267;SDS011;1646;52.450;13.326;2024-02-28T14:31:46;19.10;;;8.37;;
3267;SDS011;1646;52.450;13.326;2024-02-28T14:36:44;16.40;;;7.90;;
3267;SDS011;1646;52.450;13.326;2024-02-28T14:41:42;12.27;;;7.07;;
3267;SDS011;1646;52.450;13.326;2024-02-28T14:46:42;13.43;;;6.87;;
3267;SDS011;1646;52.450;13.326;2024-02-28T14:51:41;13.90;;;6.57;;
3267;SDS011;1646;52.450;13.326;2024-02-28T14:56:45;13.50;;;7.53;;
3267;SDS011;1646;52.450;13.326;2024-02-28T15:01:45;12.00;;;7.00;;
3267;SDS011;1646;52.450;13.326;2024-02-28T15:06:43;21.47;;;8.67;;
3267;SDS011;1646;52.450;13.326;2024-02-28T15:11:42;12.43;;;7.00;;
3267;SDS011;1646;52.450;13.326;2024-02-28T15:16:40;16.03;;;7.70;;
3267;SDS011;1646;52.450;13.326;2024-02-28T15:21:40;11.90;;;7.70;;
3267;SDS011;1646;52.450;13.326;2024-02-28T15:26:39;14.70;;;7.40;;
3267;SDS011;1646;52.450;13.326;2024-02-28T15:31:42;14.27;;;8.07;;
3267;SDS011;1646;52.450;13.326;2024-02-28T15:36:42;13.60;;;8.33;;
3267;SDS011;1646;52.450;13.326;2024-02-28T15:41:41;11.93;;;7.90;;
3267;SDS011;1646;52.450;13.326;2024-02-28T15:46:39;13.80;;;8.63;;
3267;SDS011;1646;52.450;13.326;2024-02-28T15:51:38;15.10;;;8.73;;
3267;SDS011;1646;52.450;13.326;2024-02-28T15:56:37;12.10;;;7.90;;
3267;SDS011;1646;52.450;13.326;2024-02-28T16:01:36;12.23;;;8.10;;
3267;SDS011;1646;52.450;13.326;2024-02-28T16:06:34;13.03;;;8.00;;
3267;SDS011;1646;52.450;13.326;2024-02-28T16:11:35;15.13;;;8.90;;
3267;SDS011;1646;52.450;13.326;2024-02-28T16:16:35;15.20;;;7.63;;
3267;SDS011;1646;52.450;13.326;2024-02-28T16:21:34;12.63;;;8.20;;
3267;SDS011;1646;52.450;13.326;2024-02-28T16:26:32;16.17;;;8.10;;
3267;SDS011;1646;52.450;13.326;2024-02-28T16:31:32;15.97;;;8.53;;
3267;SDS011;1646;52.450;13.326;2024-02-28T16:36:30;16.60;;;9.10;;
3267;SDS011;1646;52.450;13.326;2024-02-28T16:41:29;19.37;;;9.10;;
3267;SDS011;1646;52.450;13.326;2024-02-28T16:46:27;15.37;;;7.60;;
3267;SDS011;1646;52.450;13.326;2024-02-28T16:51:26;18.40;;;8.77;;
3267;SDS011;1646;52.450;13.326;2024-02-28T16:56:26;16.03;;;8.57;;
3267;SDS011;1646;52.450;13.326;2024-02-28T17:01:24;20.23;;;9.80;;
3267;SDS011;1646;52.450;13.326;2024-02-28T17:06:23;14.97;;;7.63;;
3267;SDS011;1646;52.450;13.326;2024-02-28T17:11:23;19.23;;;10.27;;
3267;SDS011;1646;52.450;13.326;2024-02-28T17:16:21;18.80;;;9.83;;
3267;SDS011;1646;52.450;13.326;2024-02-28T17:21:19;20.70;;;9.57;;
3267;SDS011;1646;52.450;13.326;2024-02-28T17:26:18;24.60;;;8.90;;
3267;SDS011;1646;52.450;13.326;2024-02-28T17:31:17;22.33;;;9.67;;
3267;SDS011;1646;52.450;13.326;2024-02-28T17:36:15;20.63;;;9.53;;
3267;SDS011;1646;52.450;13.326;2024-02-28T17:41:14;21.50;;;10.57;;
3267;SDS011;1646;52.450;13.326;2024-02-28T17:46:12;25.90;;;10.93;;
3267;SDS011;1646;52.450;13.326;2024-02-28T17:51:12;22.40;;;11.83;;
3267;SDS011;1646;52.450;13.326;2024-02-28T17:56:10;25.57;;;12.70;;
3267;SDS011;1646;52.450;13.326;2024-02-28T18:01:09;28.40;;;11.17;;
3267;SDS011;1646;52.450;13.326;2024-02-28T18:06:08;25.33;;;12.67;;
3267;SDS011;1646;52.450;13.326;2024-02-28T18:11:07;26.00;;;12.70;;
3267;SDS011;1646;52.450;13.326;2024-02-28T18:16:05;25.03;;;12.83;;
3267;SDS011;1646;52.450;13.326;2024-02-28T18:21:06;24.10;;;11.50;;
3267;SDS011;1646;52.450;13.326;2024-02-28T18:26:04;35.13;;;13.53;;
3267;SDS011;1646;52.450;13.326;2024-02-28T18:31:06;29.83;;;13.03;;
3267;SDS011;1646;52.450;13.326;2024-02-28T18:36:04;25.97;;;14.03;;
3267;SDS011;1646;52.450;13.326;2024-02-28T18:41:03;28.90;;;13.43;;
3267;SDS011;1646;52.450;13.326;2024-02-28T18:46:02;35.30;;;16.40;;
3267;SDS011;1646;52.450;13.326;2024-02-28T18:51:02;29.77;;;13.87;;
3267;SDS011;1646;52.450;13.326;2024-02-28T18:56:00;30.07;;;14.13;;
3267;SDS011;1646;52.450;13.326;2024-02-28T19:01:00;56.03;;;14.83;;
3267;SDS011;1646;52.450;13.326;2024-02-28T19:06:17;36.70;;;15.27;;
3267;SDS011;1646;52.450;13.326;2024-02-28T19:11:15;30.60;;;13.83;;
3267;SDS011;1646;52.450;13.326;2024-02-28T19:16:14;36.47;;;15.20;;
3267;SDS011;1646;52.450;13.326;2024-02-28T19:21:14;35.73;;;16.73;;
3267;SDS011;1646;52.450;13.326;2024-02-28T19:26:15;33.37;;;16.00;;
3267;SDS011;1646;52.450;13.326;2024-02-28T19:31:14;33.33;;;15.20;;
3267;SDS011;1646;52.450;13.326;2024-02-28T19:36:12;34.03;;;15.07;;
3267;SDS011;1646;52.450;13.326;2024-02-28T19:41:11;35.27;;;15.90;;
3267;SDS011;1646;52.450;13.326;2024-02-28T19:46:11;31.90;;;15.77;;
3267;SDS011;1646;52.450;13.326;2024-02-28T19:51:09;37.60;;;17.17;;
3267;SDS011;1646;52.450;13.326;2024-02-28T19:56:27;35.80;;;15.43;;
3267;SDS011;1646;52.450;13.326;2024-02-28T20:01:25;35.40;;;14.87;;
3267;SDS011;1646;52.450;13.326;2024-02-28T20:06:24;33.83;;;16.50;;
3267;SDS011;1646;52.450;13.326;2024-02-28T20:11:23;33.33;;;15.80;;
3267;SDS011;1646;52.450;13.326;2024-02-28T20:16:24;32.13;;;15.03;;
3267;SDS011;1646;52.450;13.326;2024-02-28T20:21:23;34.17;;;16.00;;
3267;SDS011;1646;52.450;13.326;2024-02-28T20:26:26;30.63;;;15.40;;
3267;SDS011;1646;52.450;13.326;2024-02-28T20:31:26;34.83;;;15.10;;
3267;SDS011;1646;52.450;13.326;2024-02-28T20:36:24;36.27;;;16.30;;
3267;SDS011;1646;52.450;13.326;2024-02-28T20:41:23;39.37;;;15.73;;
3267;SDS011;1646;52.450;13.326;2024-02-28T20:46:21;32.00;;;15.80;;
3267;SDS011;1646;52.450;13.326;2024-02-28T20:51:22;40.20;;;16.43;;
3267;SDS011;1646;52.450;13.326;2024-02-28T20:56:20;30.40;;;15.20;;
3267;SDS011;1646;52.450;13.326;2024-02-28T21:01:20;34.10;;;16.30;;
3267;SDS011;1646;52.450;13.326;2024-02-28T21:06:22;31.40;;;14.70;;
3267;SDS011;1646;52.450;13.326;2024-02-28T21:11:20;34.40;;;15.67;;
3267;SDS011;1646;52.450;13.326;2024-02-28T21:16:19;33.30;;;15.67;;
3267;SDS011;1646;52.450;13.326;2024-02-28T21:21:18;33.27;;;15.83;;
3267;SDS011;1646;52.450;13.326;2024-02-28T21:26:18;30.23;;;14.73;;
3267;SDS011;1646;52.450;13.326;2024-02-28T21:31:17;34.40;;;15.70;;
3267;SDS011;1646;52.450;13.326;2024-02-28T21:36:16;36.80;;;16.33;;
3267;SDS011;1646;52.450;13.326;2024-02-28T21:41:14;31.07;;;16.17;;
3267;SDS011;1646;52.450;13.326;2024-02-28T21:46:15;37.43;;;16.80;;
3267;SDS011;1646;52.450;13.326;2024-02-28T21:51:13;38.80;;;16.40;;
3267;SDS011;1646;52.450;13.326;2024-02-28T21:56:13;39.50;;;17.07;;
3267;SDS011;1646;52.450;13.326;2024-02-28T22:01:11;33.70;;;16.50;;
3267;SDS011;1646;52.450;13.326;2024-02-28T22:06:12;37.77;;;17.07;;
3267;SDS011;1646;52.450;13.326;2024-02-28T22:11:10;35.90;;;15.10;;
3267;SDS011;1646;52.450;13.326;2024-02-28T22:16:08;34.37;;;14.70;;
3267;SDS011;1646;52.450;13.326;2024-02-28T22:21:07;31.57;;;15.70;;
3267;SDS011;1646;52.450;13.326;2024-02-28T22:26:07;38.00;;;16.77;;
3267;SDS011;1646;52.450;13.326;2024-02-28T22:31:06;37.47;;;17.30;;
3267;SDS011;1646;52.450;13.326;2024-02-28T22:36:07;36.37;;;16.50;;
3267;SDS011;1646;52.450;13.326;2024-02-28T22:41:07;38.10;;;15.80;;
3267;SDS011;1646;52.450;13.326;2024-02-28T22:46:05;39.67;;;16.90;;
3267;SDS011;1646;52.450;13.326;2024-02-28T22:51:04;43.50;;;16.97;;
3267;SDS011;1646;52.450;13.326;2024-02-28T22:56:02;38.20;;;17.80;;
3267;SDS011;1646;52.450;13.326;2024-02-28T23:01:02;37.70;;;17.23;;
3267;SDS011;1646;52.450;13.326;2024-02-28T23:06:01;40.67;;;17.33;;
3267;SDS011;1646;52.450;13.326;2024-02-28T23:10:59;42.80;;;18.60;;
3267;SDS011;1646;52.450;13.326;2024-02-28T23:15:58;35.30;;;17.07;;
3267;SDS011;1646;52.450;13.326;2024-02-28T23:20:57;38.00;;;17.33;;
3267;SDS011;1646;52.450;13.326;2024-02-28T23:25:56;39.30;;;17.43;;
3267;SDS011;1646;52.450;13.326;2024-02-28T23:30:58;44.50;;;17.30;;
3267;SDS011;1646;52.450;13.326;2024-02-28T23:35:58;41.80;;;18.10;;
3267;SDS011;1646;52.450;13.326;2024-02-28T23:40:57;39.77;;;17.47;;
3267;SDS011;1646;52.450;13.326;2024-02-28T23:45:55;46.57;;;18.27;;
3267;SDS011;1646;52.450;13.326;2024-02-28T23:50:53;49.07;;;19.23;;
3267;SDS011;1646;52.450;13.326;2024-02-28T23:55:53;41.07;;;17.07;;
